Terminal Aerodrome Forecast
Issued by NWS Sterling, VA

Current Version | Previous Version | Graphics & Text | Print | Product List | Glossary On
Versions: 1 2 3 4 5 6 7 8 9 10 11 12 13 14
000
FTUS41 KLWX 281100
TAFMRB
TAF
KMRB 281135Z 2812/2912 VRB03KT P6SM SCT250
     FM281500 18006KT P6SM FEW250
     FM281800 20008G16KT P6SM FEW250
     FM282300 VRB04KT P6SM SCT250
     FM291000 VRB04KT 6SM -SHRA OVC050=

USA.gov is the U.S. government's official web portal to all federal, state and local government web resources and services.